Vroman, Colorado
Current Conditions -  °F | °C
As of 9:53 PM on Thursday 27 Nov 2014 (Local Time) from KLHX Reporting Station
Clear Clear  
Wind Chill: 33°   Ceiling: Unl
Heat Index: 39°   Visibility: 10mi
Dew Point: 24°   Wind: 9mph
Humidity: 55%   Direction: 240°WSW
Pressure: 30.09"   Gusts: NA
Location:  37.9684°N, 103.774°W
Report Text: KLHX 280453Z AUTO 24008KT 10SM CLR 04/M04 A3009 RMK AO2 SLP190 T00391044
Loading
Personal Weather Stations






























Interactive Weather Map New forecast layout! Learn more

10-Day Weather Forecast

Advertisements
Track Severe Weather on mobile